Time,TemperatureF,DewpointF,PressureIn,WindDirection,WindDirectionDegrees,WindSpeedMPH,WindSpeedGustMPH,Humidity,HourlyPrecipIn,Conditions,Clouds,dailyrainin,SoftwareType,DateUTC
2013-11-21 00:02:00,5.0,-16.0,-100.00,NNE,15,20.0,24.0,36,-99.99,,,-99.99,,2013-11-21 09:02:00,
2013-11-21 00:11:00,5.0,-16.0,-100.00,NNE,15,20.0,24.0,36,-99.99,,,-99.99,,2013-11-21 09:11:00,
2013-11-21 00:22:00,5.0,-16.0,-100.00,North,0,17.0,23.0,35,-99.99,,,-99.99,,2013-11-21 09:22:00,
2013-11-21 00:33:00,5.0,-16.0,-100.00,North,0,17.0,23.0,35,-99.99,,,-99.99,,2013-11-21 09:33:00,
2013-11-21 00:43:00,5.0,-16.0,-100.00,North,0,17.0,23.0,35,-99.99,,,-99.99,,2013-11-21 09:43:00,
2013-11-21 00:53:00,5.0,-16.0,-100.00,NNE,15,11.0,18.0,36,-99.99,,,-99.99,,2013-11-21 09:53:00,
2013-11-21 01:03:00,5.0,-16.0,-100.00,NNE,15,11.0,18.0,36,-99.99,,,-99.99,,2013-11-21 10:03:00,
2013-11-21 01:13:00,5.0,-16.0,-100.00,NNE,15,11.0,18.0,36,-99.99,,,-99.99,,2013-11-21 10:13:00,
2013-11-21 01:23:00,-2.0,-15.0,-100.00,ESE,120,4.0,14.0,52,-99.99,,,-99.99,,2013-11-21 10:23:00,
2013-11-21 01:33:00,-2.0,-15.0,-100.00,ESE,120,4.0,14.0,52,-99.99,,,-99.99,,2013-11-21 10:33:00,
2013-11-21 01:42:00,-2.0,-15.0,-100.00,ESE,120,4.0,14.0,52,-99.99,,,-99.99,,2013-11-21 10:42:00,
2013-11-21 01:53:00,-4.0,-12.0,-100.00,ESE,120,4.0,7.0,69,-99.99,,,-99.99,,2013-11-21 10:53:00,
2013-11-21 02:03:00,-4.0,-12.0,-100.00,ESE,120,4.0,7.0,69,-99.99,,,-99.99,,2013-11-21 11:03:00,
2013-11-21 02:12:00,-4.0,-12.0,-100.00,ESE,120,4.0,7.0,69,-99.99,,,-99.99,,2013-11-21 11:12:00,
2013-11-21 02:22:00,-5.0,-11.0,-100.00,ESE,110,2.0,4.0,74,-99.99,,,-99.99,,2013-11-21 11:22:00,
2013-11-21 02:33:00,-5.0,-11.0,-100.00,ESE,110,2.0,4.0,74,-99.99,,,-99.99,,2013-11-21 11:33:00,
2013-11-21 02:43:00,-5.0,-11.0,-100.00,ESE,110,2.0,4.0,74,-99.99,,,-99.99,,2013-11-21 11:43:00,
2013-11-21 02:52:00,-7.0,-13.0,-100.00,SSE,160,1.0,4.0,74,-99.99,,,-99.99,,2013-11-21 11:52:00,
2013-11-21 03:02:00,-7.0,-13.0,-100.00,SSE,160,1.0,4.0,74,-99.99,,,-99.99,,2013-11-21 12:02:00,
2013-11-21 03:11:00,-7.0,-13.0,-100.00,SSE,160,1.0,4.0,74,-99.99,,,-99.99,,2013-11-21 12:11:00,
2013-11-21 03:21:00,-5.0,-11.0,-100.00,ESE,110,0.0,2.0,73,-99.99,,,-99.99,,2013-11-21 12:21:00,
2013-11-21 03:32:00,-5.0,-11.0,-100.00,ESE,110,0.0,2.0,73,-99.99,,,-99.99,,2013-11-21 12:32:00,
2013-11-21 03:42:00,-5.0,-11.0,-100.00,ESE,110,0.0,2.0,73,-99.99,,,-99.99,,2013-11-21 12:42:00,
2013-11-21 03:52:00,-6.0,-11.0,-100.00,West,265,0.0,1.0,77,-99.99,,,-99.99,,2013-11-21 12:52:00,
2013-11-21 04:01:00,-6.0,-11.0,-100.00,West,265,0.0,1.0,77,-99.99,,,-99.99,,2013-11-21 13:01:00,
2013-11-21 04:11:00,-6.0,-11.0,-100.00,West,265,0.0,1.0,77,-99.99,,,-99.99,,2013-11-21 13:11:00,
2013-11-21 04:21:00,-6.0,-11.0,-100.00,East,85,1.0,1.0,76,-99.99,,,-99.99,,2013-11-21 13:21:00,
2013-11-21 04:32:00,-6.0,-11.0,-100.00,East,85,1.0,1.0,76,-99.99,,,-99.99,,2013-11-21 13:32:00,
2013-11-21 04:42:00,-6.0,-11.0,-100.00,East,85,1.0,1.0,76,-99.99,,,-99.99,,2013-11-21 13:42:00,
2013-11-21 04:52:00,-5.0,-10.0,-100.00,SE,125,1.0,1.0,78,-99.99,,,-99.99,,2013-11-21 13:52:00,
2013-11-21 05:02:00,-5.0,-10.0,-100.00,SE,125,1.0,1.0,78,-99.99,,,-99.99,,2013-11-21 14:02:00,
2013-11-21 05:11:00,-5.0,-10.0,-100.00,SE,125,1.0,1.0,78,-99.99,,,-99.99,,2013-11-21 14:11:00,
2013-11-21 05:22:00,-6.0,-11.0,-100.00,ESE,110,0.0,1.0,77,-99.99,,,-99.99,,2013-11-21 14:22:00,
2013-11-21 05:32:00,-6.0,-11.0,-100.00,ESE,110,0.0,1.0,77,-99.99,,,-99.99,,2013-11-21 14:32:00,
2013-11-21 05:42:00,-6.0,-11.0,-100.00,ESE,110,0.0,1.0,77,-99.99,,,-99.99,,2013-11-21 14:42:00,
2013-11-21 05:52:00,-6.0,-11.0,-100.00,ESE,120,1.0,2.0,77,-99.99,,,-99.99,,2013-11-21 14:52:00,
2013-11-21 06:02:00,-6.0,-11.0,-100.00,ESE,120,1.0,2.0,77,-99.99,,,-99.99,,2013-11-21 15:02:00,
2013-11-21 06:12:00,-6.0,-11.0,-100.00,ESE,120,1.0,2.0,77,-99.99,,,-99.99,,2013-11-21 15:12:00,
2013-11-21 06:22:00,-6.0,-11.0,-100.00,East,85,0.0,1.0,77,-99.99,,,-99.99,,2013-11-21 15:22:00,
2013-11-21 06:33:00,-6.0,-11.0,-100.00,East,85,0.0,1.0,77,-99.99,,,-99.99,,2013-11-21 15:33:00,
2013-11-21 06:43:00,-6.0,-11.0,-100.00,East,85,0.0,1.0,77,-99.99,,,-99.99,,2013-11-21 15:43:00,
2013-11-21 06:53:00,-6.0,-11.0,-100.00,North,0,1.0,3.0,78,-99.99,,,-99.99,,2013-11-21 15:53:00,
2013-11-21 07:03:00,-6.0,-11.0,-100.00,North,0,1.0,3.0,78,-99.99,,,-99.99,,2013-11-21 16:03:00,
2013-11-21 07:13:00,-6.0,-11.0,-100.00,North,0,1.0,3.0,78,-99.99,,,-99.99,,2013-11-21 16:13:00,
2013-11-21 07:23:00,-3.0,-8.0,-100.00,NW,310,2.0,6.0,79,-99.99,,,-99.99,,2013-11-21 16:23:00,
2013-11-21 07:33:00,-3.0,-8.0,-100.00,NW,310,2.0,6.0,79,-99.99,,,-99.99,,2013-11-21 16:33:00,
2013-11-21 07:42:00,-3.0,-8.0,-100.00,NW,310,2.0,6.0,79,-99.99,,,-99.99,,2013-11-21 16:42:00,
2013-11-21 07:53:00,-5.0,-10.0,-100.00,SE,145,0.0,1.0,78,-99.99,,,-99.99,,2013-11-21 16:53:00,
2013-11-21 08:03:00,-5.0,-10.0,-100.00,SE,145,0.0,1.0,78,-99.99,,,-99.99,,2013-11-21 17:03:00,
2013-11-21 08:12:00,-5.0,-10.0,-100.00,SE,145,0.0,1.0,78,-99.99,,,-99.99,,2013-11-21 17:12:00,
2013-11-21 08:22:00,-2.0,-8.0,-100.00,SSE,155,1.0,3.0,78,-99.99,,,-99.99,,2013-11-21 17:22:00,
2013-11-21 08:33:00,-2.0,-8.0,-100.00,SSE,155,1.0,3.0,78,-99.99,,,-99.99,,2013-11-21 17:33:00,
2013-11-21 08:42:00,-2.0,-8.0,-100.00,SSE,155,1.0,3.0,78,-99.99,,,-99.99,,2013-11-21 17:42:00,
2013-11-21 08:52:00,-3.0,-8.0,-100.00,SE,130,3.0,4.0,77,-99.99,,,-99.99,,2013-11-21 17:52:00,
2013-11-21 09:02:00,-3.0,-8.0,-100.00,SE,130,3.0,4.0,77,-99.99,,,-99.99,,2013-11-21 18:02:00,
2013-11-21 09:12:00,-3.0,-8.0,-100.00,SE,130,3.0,4.0,77,-99.99,,,-99.99,,2013-11-21 18:12:00,
2013-11-21 09:21:00,-3.0,-7.0,-100.00,ENE,65,1.0,2.0,79,-99.99,,,-99.99,,2013-11-21 18:21:00,
2013-11-21 09:32:00,-3.0,-7.0,-100.00,ENE,65,1.0,2.0,79,-99.99,,,-99.99,,2013-11-21 18:32:00,
2013-11-21 09:42:00,-3.0,-7.0,-100.00,ENE,65,1.0,2.0,79,-99.99,,,-99.99,,2013-11-21 18:42:00,
2013-11-21 09:52:00,-1.0,-6.0,-100.00,NNE,20,1.0,2.0,79,-99.99,,,-99.99,,2013-11-21 18:52:00,
2013-11-21 10:02:00,-1.0,-6.0,-100.00,NNE,20,1.0,2.0,79,-99.99,,,-99.99,,2013-11-21 19:02:00,
2013-11-21 10:12:00,-1.0,-6.0,-100.00,NNE,20,1.0,2.0,79,-99.99,,,-99.99,,2013-11-21 19:12:00,
2013-11-21 10:22:00,0.0,-5.0,-100.00,ESE,105,1.0,4.0,79,-99.99,,,-99.99,,2013-11-21 19:22:00,
2013-11-21 10:32:00,0.0,-5.0,-100.00,ESE,105,1.0,4.0,79,-99.99,,,-99.99,,2013-11-21 19:32:00,
2013-11-21 10:42:00,0.0,-5.0,-100.00,ESE,105,1.0,4.0,79,-99.99,,,-99.99,,2013-11-21 19:42:00,
2013-11-21 10:52:00,1.0,-5.0,-100.00,SE,145,2.0,4.0,76,-99.99,,,-99.99,,2013-11-21 19:52:00,
2013-11-21 11:02:00,1.0,-5.0,-100.00,SE,145,2.0,4.0,76,-99.99,,,-99.99,,2013-11-21 20:02:00,
2013-11-21 11:12:00,1.0,-5.0,-100.00,SE,145,2.0,4.0,76,-99.99,,,-99.99,,2013-11-21 20:12:00,
2013-11-21 11:21:00,1.0,-5.0,-100.00,ESE,110,1.0,3.0,75,-99.99,,,-99.99,,2013-11-21 20:21:00,
2013-11-21 11:32:00,1.0,-5.0,-100.00,ESE,110,1.0,3.0,75,-99.99,,,-99.99,,2013-11-21 20:32:00,
2013-11-21 11:42:00,1.0,-5.0,-100.00,ESE,110,1.0,3.0,75,-99.99,,,-99.99,,2013-11-21 20:42:00,
2013-11-21 11:52:00,2.0,-5.0,-100.00,ESE,115,1.0,4.0,71,-99.99,,,-99.99,,2013-11-21 20:52:00,
2013-11-21 12:02:00,2.0,-5.0,-100.00,ESE,115,1.0,4.0,71,-99.99,,,-99.99,,2013-11-21 21:02:00,
2013-11-21 12:11:00,2.0,-5.0,-100.00,ESE,115,1.0,4.0,71,-99.99,,,-99.99,,2013-11-21 21:11:00,
2013-11-21 12:21:00,3.0,-4.0,-100.00,East,100,3.0,4.0,72,-99.99,,,-99.99,,2013-11-21 21:21:00,
2013-11-21 12:34:00,3.0,-4.0,-100.00,East,100,3.0,4.0,72,-99.99,,,-99.99,,2013-11-21 21:34:00,
2013-11-21 12:43:00,3.0,-4.0,-100.00,East,100,3.0,4.0,72,-99.99,,,-99.99,,2013-11-21 21:43:00,
2013-11-21 12:54:00,4.0,-6.0,-100.00,ESE,105,2.0,4.0,63,-99.99,,,-99.99,,2013-11-21 21:54:00,
2013-11-21 13:03:00,4.0,-6.0,-100.00,ESE,105,2.0,4.0,63,-99.99,,,-99.99,,2013-11-21 22:03:00,
2013-11-21 13:13:00,4.0,-6.0,-100.00,ESE,105,2.0,4.0,63,-99.99,,,-99.99,,2013-11-21 22:13:00,
2013-11-21 13:23:00,4.0,-5.0,-100.00,SE,130,2.0,5.0,66,-99.99,,,-99.99,,2013-11-21 22:23:00,
2013-11-21 13:33:00,4.0,-5.0,-100.00,SE,130,2.0,5.0,66,-99.99,,,-99.99,,2013-11-21 22:33:00,
2013-11-21 13:42:00,4.0,-5.0,-100.00,SE,130,2.0,5.0,66,-99.99,,,-99.99,,2013-11-21 22:42:00,
2013-11-21 13:53:00,5.0,-3.0,-100.00,SSE,165,1.0,5.0,70,-99.99,,,-99.99,,2013-11-21 22:53:00,
2013-11-21 14:02:00,5.0,-3.0,-100.00,SSE,165,1.0,5.0,70,-99.99,,,-99.99,,2013-11-21 23:02:00,
2013-11-21 14:12:00,5.0,-3.0,-100.00,SSE,165,1.0,5.0,70,-99.99,,,-99.99,,2013-11-21 23:12:00,
2013-11-21 14:22:00,6.0,-1.0,-100.00,East,85,3.0,6.0,72,-99.99,,,-99.99,,2013-11-21 23:22:00,
2013-11-21 14:33:00,6.0,-1.0,-100.00,East,85,3.0,6.0,72,-99.99,,,-99.99,,2013-11-21 23:33:00,
2013-11-21 14:42:00,6.0,-1.0,-100.00,East,85,3.0,6.0,72,-99.99,,,-99.99,,2013-11-21 23:42:00,
2013-11-21 14:53:00,6.0,0.0,-100.00,ENE,75,4.0,6.0,74,-99.99,,,-99.99,,2013-11-21 23:53:00,
2013-11-21 15:02:00,6.0,0.0,-100.00,ENE,75,4.0,6.0,74,-99.99,,,-99.99,,2013-11-22 00:02:00,
2013-11-21 15:11:00,6.0,0.0,-100.00,ENE,75,4.0,6.0,74,-99.99,,,-99.99,,2013-11-22 00:11:00,
2013-11-21 15:22:00,7.0,1.0,-100.00,ESE,120,6.0,7.0,75,-99.99,,,-99.99,,2013-11-22 00:22:00,
2013-11-21 15:32:00,7.0,1.0,-100.00,ESE,120,6.0,7.0,75,-99.99,,,-99.99,,2013-11-22 00:32:00,
2013-11-21 15:42:00,7.0,1.0,-100.00,ESE,120,6.0,7.0,75,-99.99,,,-99.99,,2013-11-22 00:42:00,
2013-11-21 15:52:00,7.0,1.0,-100.00,East,90,4.0,6.0,75,-99.99,,,-99.99,,2013-11-22 00:52:00,
2013-11-21 16:01:00,7.0,1.0,-100.00,East,90,4.0,6.0,75,-99.99,,,-99.99,,2013-11-22 01:01:00,
2013-11-21 16:12:00,7.0,1.0,-100.00,East,90,4.0,6.0,75,-99.99,,,-99.99,,2013-11-22 01:12:00,
2013-11-21 16:22:00,7.0,0.0,-100.00,East,85,6.0,7.0,73,-99.99,,,-99.99,,2013-11-22 01:22:00,
2013-11-21 16:32:00,7.0,0.0,-100.00,East,85,6.0,7.0,73,-99.99,,,-99.99,,2013-11-22 01:32:00,
2013-11-21 16:42:00,7.0,0.0,-100.00,East,85,6.0,7.0,73,-99.99,,,-99.99,,2013-11-22 01:42:00,
2013-11-21 16:52:00,7.0,1.0,-100.00,ESE,105,7.0,10.0,76,-99.99,,,-99.99,,2013-11-22 01:52:00,
2013-11-21 17:02:00,7.0,1.0,-100.00,ESE,105,7.0,10.0,76,-99.99,,,-99.99,,2013-11-22 02:02:00,
2013-11-21 17:11:00,7.0,1.0,-100.00,ESE,105,7.0,10.0,76,-99.99,,,-99.99,,2013-11-22 02:11:00,
2013-11-21 17:21:00,7.0,1.0,-100.00,East,90,7.0,12.0,74,-99.99,,,-99.99,,2013-11-22 02:21:00,
2013-11-21 17:32:00,7.0,1.0,-100.00,East,90,7.0,12.0,74,-99.99,,,-99.99,,2013-11-22 02:32:00,
2013-11-21 17:42:00,7.0,1.0,-100.00,East,90,7.0,12.0,74,-99.99,,,-99.99,,2013-11-22 02:42:00,
2013-11-21 17:53:00,9.0,0.0,-100.00,ESE,105,9.0,16.0,64,-99.99,,,-99.99,,2013-11-22 02:53:00,
2013-11-21 18:02:00,9.0,0.0,-100.00,ESE,105,9.0,16.0,64,-99.99,,,-99.99,,2013-11-22 03:02:00,
2013-11-21 18:11:00,9.0,0.0,-100.00,ESE,105,9.0,16.0,64,-99.99,,,-99.99,,2013-11-22 03:11:00,
2013-11-21 18:21:00,13.0,-4.0,-100.00,NE,55,12.0,26.0,44,-99.99,,,-99.99,,2013-11-22 03:21:00,
2013-11-21 18:33:00,13.0,-4.0,-100.00,NE,55,12.0,26.0,44,-99.99,,,-99.99,,2013-11-22 03:33:00,
2013-11-21 18:43:00,13.0,-4.0,-100.00,NE,55,12.0,26.0,44,-99.99,,,-99.99,,2013-11-22 03:43:00,
2013-11-21 18:54:00,14.0,-1.0,-100.00,ENE,75,12.0,17.0,51,-99.99,,,-99.99,,2013-11-22 03:54:00,
2013-11-21 19:03:00,14.0,-1.0,-100.00,ENE,75,12.0,17.0,51,-99.99,,,-99.99,,2013-11-22 04:03:00,
2013-11-21 19:13:00,14.0,-1.0,-100.00,ENE,75,12.0,17.0,51,-99.99,,,-99.99,,2013-11-22 04:13:00,
2013-11-21 19:23:00,15.0,-4.0,-100.00,NE,35,14.0,32.0,42,-99.99,,,-99.99,,2013-11-22 04:23:00,
2013-11-21 19:33:00,15.0,-4.0,-100.00,NE,35,14.0,32.0,42,-99.99,,,-99.99,,2013-11-22 04:33:00,
2013-11-21 19:43:00,15.0,-4.0,-100.00,NE,35,14.0,32.0,42,-99.99,,,-99.99,,2013-11-22 04:43:00,
2013-11-21 19:52:00,16.0,-4.0,-100.00,North,5,21.0,39.0,41,-99.99,,,-99.99,,2013-11-22 04:52:00,
2013-11-21 20:02:00,16.0,-4.0,-100.00,North,5,21.0,39.0,41,-99.99,,,-99.99,,2013-11-22 05:02:00,
2013-11-21 20:12:00,16.0,-4.0,-100.00,North,5,21.0,39.0,41,-99.99,,,-99.99,,2013-11-22 05:12:00,
2013-11-21 20:22:00,16.0,2.0,-100.00,SSE,155,7.0,16.0,52,-99.99,,,-99.99,,2013-11-22 05:22:00,
2013-11-21 20:32:00,16.0,2.0,-100.00,SSE,155,7.0,16.0,52,-99.99,,,-99.99,,2013-11-22 05:32:00,
2013-11-21 20:43:00,16.0,2.0,-100.00,SSE,155,7.0,16.0,52,-99.99,,,-99.99,,2013-11-22 05:43:00,
2013-11-21 20:52:00,15.0,-1.0,-100.00,NE,55,11.0,28.0,49,-99.99,,,-99.99,,2013-11-22 05:52:00,
2013-11-21 21:02:00,15.0,-1.0,-100.00,NE,55,11.0,28.0,49,-99.99,,,-99.99,,2013-11-22 06:02:00,
2013-11-21 21:12:00,15.0,-1.0,-100.00,NE,55,11.0,28.0,49,-99.99,,,-99.99,,2013-11-22 06:12:00,
2013-11-21 21:21:00,14.0,0.0,-100.00,North,0,24.0,48.0,51,-99.99,,,-99.99,,2013-11-22 06:21:00,
2013-11-21 21:32:00,14.0,0.0,-100.00,North,0,24.0,48.0,51,-99.99,,,-99.99,,2013-11-22 06:32:00,
2013-11-21 21:42:00,14.0,0.0,-100.00,North,0,24.0,48.0,51,-99.99,,,-99.99,,2013-11-22 06:42:00,
2013-11-21 21:52:00,14.0,0.0,-100.00,North,0,32.0,42.0,53,-99.99,,,-99.99,,2013-11-22 06:52:00,
2013-11-21 22:02:00,14.0,0.0,-100.00,North,0,32.0,42.0,53,-99.99,,,-99.99,,2013-11-22 07:02:00,
2013-11-21 22:12:00,14.0,0.0,-100.00,North,0,32.0,42.0,53,-99.99,,,-99.99,,2013-11-22 07:12:00,
2013-11-21 22:21:00,13.0,1.0,-100.00,North,5,30.0,42.0,58,-99.99,,,-99.99,,2013-11-22 07:21:00,
2013-11-21 22:32:00,13.0,1.0,-100.00,North,5,30.0,42.0,58,-99.99,,,-99.99,,2013-11-22 07:32:00,
2013-11-21 22:42:00,13.0,1.0,-100.00,North,5,30.0,42.0,58,-99.99,,,-99.99,,2013-11-22 07:42:00,
2013-11-21 22:52:00,14.0,4.0,-100.00,NE,35,12.0,35.0,63,-99.99,,,-99.99,,2013-11-22 07:52:00,
2013-11-21 23:01:00,14.0,4.0,-100.00,NE,35,12.0,35.0,63,-99.99,,,-99.99,,2013-11-22 08:01:00,
2013-11-21 23:11:00,14.0,4.0,-100.00,NE,35,12.0,35.0,63,-99.99,,,-99.99,,2013-11-22 08:11:00,
2013-11-21 23:21:00,14.0,5.0,-100.00,North,10,24.0,38.0,66,-99.99,,,-99.99,,2013-11-22 08:21:00,
2013-11-21 23:32:00,14.0,5.0,-100.00,North,10,24.0,38.0,66,-99.99,,,-99.99,,2013-11-22 08:32:00,
2013-11-21 23:42:00,14.0,5.0,-100.00,North,10,24.0,38.0,66,-99.99,,,-99.99,,2013-11-22 08:42:00,
2013-11-21 23:52:00,14.0,6.0,-100.00,North,0,27.0,42.0,71,-99.99,,,-99.99,,2013-11-22 08:52:00,